Time;durP1;ratioP1;P1;durP2;ratioP2;P2;SDS_P1;SDS_P2;PMS_P1;PMS_P2;Temp;Humidity;BMP_temperature;BMP_pressure;BME280_temperature;BME280_humidity;BME280_pressure;Samples;Min_cycle;Max_cycle;Signal;HPM_P1;HPM_P2
2021/04/01 00:00:51;;;;;;;116.63;73.35;;;;;;;;;;5125084;27;20046;-79
2021/04/01 00:03:17;;;;;;;110.35;69.35;;;;;;;;;;5116678;27;20107;-82
2021/04/01 00:05:44;;;;;;;118.63;71.22;;;;;;;;;;5132089;27;20363;-83
2021/04/01 00:08:11;;;;;;;113.57;72.13;;;;;;;;;;5133916;27;20062;-82
2021/04/01 00:10:39;;;;;;;110.10;69.78;;;;;;;;;;5133869;27;20064;-82
2021/04/01 00:13:05;;;;;;;115.78;72.43;;;;;;;;;;5129573;27;20500;-83
2021/04/01 00:15:31;;;;;;;113.60;72.20;;;;;;;;;;5118742;27;20056;-82
2021/04/01 00:17:58;;;;;;;119.25;73.05;;;;;;;;;;5134903;27;20127;-84
2021/04/01 00:20:24;;;;;;;122.90;72.70;;;;;;;;;;5129328;27;20047;-83
2021/04/01 00:22:50;;;;;;;114.05;72.43;;;;;;;;;;5127088;27;20116;-83
2021/04/01 00:25:18;;;;;;;120.60;72.60;;;;;;;;;;5135651;27;20035;-83
2021/04/01 00:27:44;;;;;;;125.53;75.13;;;;;;;;;;5133582;27;20051;-82
2021/04/01 00:30:11;;;;;;;116.50;74.53;;;;;;;;;;5137329;27;20043;-82
2021/04/01 00:32:37;;;;;;;123.05;76.72;;;;;;;;;;5134567;27;20093;-83
2021/04/01 00:35:04;;;;;;;120.03;73.93;;;;;;;;;;5118100;27;20059;-84
2021/04/01 00:37:31;;;;;;;119.15;72.07;;;;;;;;;;5127517;27;20043;-84
2021/04/01 00:39:57;;;;;;;116.22;73.13;;;;;;;;;;5127773;27;20374;-84
2021/04/01 00:42:24;;;;;;;122.35;75.70;;;;;;;;;;5118586;27;20039;-84
2021/04/01 00:44:50;;;;;;;113.68;70.68;;;;;;;;;;5136722;27;20045;-83
2021/04/01 00:47:16;;;;;;;128.00;71.32;;;;;;;;;;5135389;27;20483;-82
2021/04/01 00:49:43;;;;;;;131.18;76.82;;;;;;;;;;5128104;27;20386;-83
2021/04/01 00:52:10;;;;;;;117.28;72.38;;;;;;;;;;5132694;27;20074;-83
2021/04/01 00:54:36;;;;;;;126.35;74.65;;;;;;;;;;5118591;27;20058;-83
2021/04/01 00:57:03;;;;;;;118.75;72.53;;;;;;;;;;5116129;27;20400;-84
2021/04/01 00:59:29;;;;;;;114.65;72.78;;;;;;;;;;5129790;27;20186;-83
2021/04/01 01:02:04;;;;;;;120.65;73.50;;;;;;;;;;5134488;27;20126;-83
2021/04/01 01:04:31;;;;;;;120.82;72.82;;;;;;;;;;5110237;27;20035;-83
2021/04/01 01:06:58;;;;;;;122.25;75.20;;;;;;;;;;5127424;27;20084;-85
2021/04/01 01:09:24;;;;;;;121.97;73.15;;;;;;;;;;5124373;27;20047;-83
2021/04/01 01:11:50;;;;;;;121.82;75.35;;;;;;;;;;5113267;28;20036;-82
2021/04/01 01:14:17;;;;;;;119.00;72.35;;;;;;;;;;5125354;27;20042;-84
2021/04/01 01:16:43;;;;;;;120.53;73.38;;;;;;;;;;5089378;28;20059;-83
2021/04/01 01:19:11;;;;;;;120.45;72.57;;;;;;;;;;5117848;27;20047;-83
2021/04/01 01:21:38;;;;;;;126.00;71.50;;;;;;;;;;5122284;27;20044;-83
2021/04/01 01:24:10;;;;;;;119.15;73.60;;;;;;;;;;5132814;27;20482;-83
2021/04/01 01:26:39;;;;;;;118.72;72.80;;;;;;;;;;5132717;27;20054;-83
2021/04/01 01:29:05;;;;;;;120.63;74.45;;;;;;;;;;5095596;28;20055;-83
2021/04/01 01:31:32;;;;;;;126.18;74.75;;;;;;;;;;5131861;27;20051;-84
2021/04/01 01:33:58;;;;;;;118.05;72.25;;;;;;;;;;5112497;27;20411;-84
2021/04/01 01:36:24;;;;;;;126.90;76.72;;;;;;;;;;5102061;27;20044;-82
2021/04/01 01:38:50;;;;;;;119.80;71.85;;;;;;;;;;5129911;27;20074;-80
2021/04/01 01:41:17;;;;;;;121.30;71.40;;;;;;;;;;5115802;27;20055;-81
2021/04/01 01:43:43;;;;;;;122.90;75.38;;;;;;;;;;5123262;27;20062;-82
2021/04/01 01:46:09;;;;;;;126.30;74.30;;;;;;;;;;5131559;27;20389;-83
2021/04/01 01:48:35;;;;;;;131.18;78.28;;;;;;;;;;5111943;27;20032;-83
2021/04/01 01:51:02;;;;;;;120.40;72.30;;;;;;;;;;5129504;27;20039;-82
2021/04/01 01:53:29;;;;;;;126.38;76.85;;;;;;;;;;5127880;27;20394;-83
2021/04/01 01:55:55;;;;;;;129.45;77.32;;;;;;;;;;5133806;27;20058;-82
2021/04/01 01:58:22;;;;;;;123.70;74.95;;;;;;;;;;5112978;27;20042;-84
2021/04/01 02:00:54;;;;;;;125.95;76.65;;;;;;;;;;5128306;27;20051;-83
2021/04/01 02:03:20;;;;;;;126.70;74.43;;;;;;;;;;5118999;27;20039;-83
2021/04/01 02:05:47;;;;;;;127.10;77.65;;;;;;;;;;5132007;27;20057;-83
2021/04/01 02:08:13;;;;;;;129.05;78.45;;;;;;;;;;5128924;27;20047;-83
2021/04/01 02:10:41;;;;;;;133.40;77.20;;;;;;;;;;5132910;27;20050;-82
2021/04/01 02:13:07;;;;;;;133.13;77.40;;;;;;;;;;5131106;27;20474;-83
2021/04/01 02:15:37;;;;;;;129.10;77.32;;;;;;;;;;5098148;27;20043;-82
2021/04/01 02:18:16;;;;;;;131.77;77.18;;;;;;;;;;5115072;27;20062;-82
2021/04/01 02:20:48;;;;;;;128.40;77.65;;;;;;;;;;5126236;27;20043;-83
2021/04/01 02:23:14;;;;;;;125.82;73.72;;;;;;;;;;5122564;27;20061;-84
2021/04/01 02:25:41;;;;;;;139.68;80.28;;;;;;;;;;5130816;27;20043;-82
2021/04/01 02:28:07;;;;;;;133.82;77.28;;;;;;;;;;5136074;27;20474;-82
2021/04/01 02:30:34;;;;;;;135.38;79.15;;;;;;;;;;5123358;27;20042;-82
2021/04/01 02:33:00;;;;;;;134.90;78.00;;;;;;;;;;5131705;27;20385;-83
2021/04/01 02:35:27;;;;;;;134.13;80.60;;;;;;;;;;5107713;28;20063;-83
2021/04/01 02:37:53;;;;;;;140.00;79.25;;;;;;;;;;5126109;27;20049;-82
2021/04/01 02:40:19;;;;;;;131.43;76.82;;;;;;;;;;5115070;27;20051;-82
2021/04/01 02:42:45;;;;;;;138.07;79.20;;;;;;;;;;5131146;27;20035;-82
2021/04/01 02:45:12;;;;;;;136.02;77.80;;;;;;;;;;5110310;28;20047;-83
2021/04/01 02:47:39;;;;;;;137.02;81.45;;;;;;;;;;5128589;27;20074;-83
2021/04/01 02:50:06;;;;;;;142.15;81.78;;;;;;;;;;5127561;27;20047;-82
2021/04/01 02:52:32;;;;;;;136.57;80.20;;;;;;;;;;5118873;27;20398;-82
2021/04/01 02:54:58;;;;;;;138.68;83.07;;;;;;;;;;5132571;27;20092;-83
2021/04/01 02:57:24;;;;;;;141.65;82.25;;;;;;;;;;5114200;28;20040;-83
2021/04/01 02:59:50;;;;;;;139.68;81.80;;;;;;;;;;5128927;27;20068;-84
2021/04/01 03:02:18;;;;;;;145.55;79.95;;;;;;;;;;5099499;27;20097;-83
2021/04/01 03:04:46;;;;;;;139.63;78.15;;;;;;;;;;5134030;27;20067;-82
2021/04/01 03:07:12;;;;;;;136.82;78.75;;;;;;;;;;5133367;27;20114;-84
2021/04/01 03:09:39;;;;;;;141.88;80.00;;;;;;;;;;5135820;27;20035;-82
2021/04/01 03:12:05;;;;;;;141.57;79.38;;;;;;;;;;5134298;27;20126;-82
2021/04/01 03:14:31;;;;;;;135.25;79.95;;;;;;;;;;5153306;27;20046;-82
2021/04/01 03:16:57;;;;;;;134.52;79.68;;;;;;;;;;5135495;27;20051;-82
2021/04/01 03:19:24;;;;;;;139.70;79.97;;;;;;;;;;5117249;28;20063;-83
2021/04/01 03:21:50;;;;;;;137.90;77.55;;;;;;;;;;5123397;27;20538;-83
2021/04/01 03:24:17;;;;;;;133.02;76.78;;;;;;;;;;5130454;28;20067;-83
2021/04/01 03:26:43;;;;;;;138.25;78.80;;;;;;;;;;5116717;28;20040;-82
2021/04/01 03:29:09;;;;;;;133.45;73.35;;;;;;;;;;5131019;28;20046;-82
2021/04/01 03:31:36;;;;;;;127.47;71.55;;;;;;;;;;5134788;28;20123;-81
2021/04/01 03:34:02;;;;;;;126.68;73.80;;;;;;;;;;5133631;28;20599;-81
2021/04/01 03:36:29;;;;;;;122.32;69.90;;;;;;;;;;5134013;27;20031;-82
2021/04/01 03:38:55;;;;;;;124.63;69.05;;;;;;;;;;5137083;28;20036;-83
2021/04/01 03:41:21;;;;;;;116.30;68.00;;;;;;;;;;5122621;28;20138;-83
2021/04/01 03:43:48;;;;;;;124.00;70.00;;;;;;;;;;5119596;28;20036;-84
2021/04/01 03:46:14;;;;;;;121.80;67.00;;;;;;;;;;5118595;28;20051;-83
2021/04/01 03:48:41;;;;;;;121.45;69.07;;;;;;;;;;5136866;28;20043;-83
2021/04/01 03:51:07;;;;;;;117.95;67.63;;;;;;;;;;5137358;28;20039;-82
2021/04/01 03:53:33;;;;;;;124.30;68.78;;;;;;;;;;5111800;28;20047;-82
2021/04/01 03:56:00;;;;;;;120.97;68.15;;;;;;;;;;5128096;28;20047;-83
2021/04/01 04:16:18;;;;;;;125.78;71.82;;;;;;;;;;5131632;28;20043;-83
2021/04/01 04:18:45;;;;;;;125.82;71.32;;;;;;;;;;5119641;28;20039;-83
2021/04/01 04:21:11;;;;;;;119.97;68.05;;;;;;;;;;5120574;27;20107;-83
2021/04/01 04:23:42;;;;;;;127.80;70.30;;;;;;;;;;5130221;28;20035;-83
2021/04/01 04:26:09;;;;;;;131.15;73.55;;;;;;;;;;5131256;28;20039;-84
2021/04/01 04:28:36;;;;;;;125.18;71.90;;;;;;;;;;5123313;28;20108;-84
2021/04/01 04:31:03;;;;;;;127.53;71.65;;;;;;;;;;5126489;27;20039;-84
2021/04/01 04:33:29;;;;;;;127.53;75.40;;;;;;;;;;5123759;27;20036;-84
2021/04/01 04:35:55;;;;;;;138.65;76.20;;;;;;;;;;5125155;27;20527;-84
2021/04/01 04:38:21;;;;;;;146.60;77.93;;;;;;;;;;5126403;27;20066;-85
2021/04/01 04:40:50;;;;;;;135.98;76.43;;;;;;;;;;5126840;27;20502;-83
2021/04/01 04:43:16;;;;;;;150.98;78.88;;;;;;;;;;5134905;27;20039;-83
2021/04/01 04:45:43;;;;;;;148.18;74.55;;;;;;;;;;5123555;27;20066;-84
2021/04/01 04:48:09;;;;;;;134.15;70.10;;;;;;;;;;5121561;27;20039;-83
2021/04/01 04:50:36;;;;;;;139.75;72.57;;;;;;;;;;5088759;27;20055;-83
2021/04/01 04:53:02;;;;;;;133.30;70.90;;;;;;;;;;5113210;28;20042;-82
2021/04/01 04:55:28;;;;;;;129.32;66.80;;;;;;;;;;5130940;27;20100;-82
2021/04/01 04:58:04;;;;;;;127.25;65.22;;;;;;;;;;5134239;27;20462;-81
2021/04/01 05:05:41;;;;;;;115.57;59.83;;;;;;;;;;5128232;27;20031;-79
2021/04/01 05:08:08;;;;;;;105.22;52.70;;;;;;;;;;5129028;27;20050;-79
2021/04/01 05:10:39;;;;;;;94.40;49.63;;;;;;;;;;5122789;27;20031;-78
2021/04/01 05:15:31;;;;;;;88.30;43.50;;;;;;;;;;5120447;27;20035;-84
2021/04/01 05:18:13;;;;;;;79.00;39.55;;;;;;;;;;5133412;27;20046;-80
2021/04/01 05:20:39;;;;;;;72.93;35.90;;;;;;;;;;5117550;27;20055;-82
2021/04/01 05:23:12;;;;;;;69.70;33.42;;;;;;;;;;5133161;27;20042;-83
2021/04/01 05:25:39;;;;;;;64.53;30.20;;;;;;;;;;5116834;27;20066;-82
2021/04/01 05:28:20;;;;;;;53.03;24.48;;;;;;;;;;5127830;27;20043;-82
2021/04/01 05:30:46;;;;;;;48.67;21.52;;;;;;;;;;5140765;27;20046;-82
2021/04/01 05:33:14;;;;;;;38.65;17.13;;;;;;;;;;5116968;27;20066;-82
2021/04/01 05:35:40;;;;;;;36.70;15.02;;;;;;;;;;5132655;27;20470;-82
2021/04/01 05:38:07;;;;;;;38.45;16.10;;;;;;;;;;5116455;27;20523;-82
2021/04/01 05:40:33;;;;;;;34.67;11.55;;;;;;;;;;5133339;27;20508;-83
2021/04/01 05:43:06;;;;;;;33.50;11.93;;;;;;;;;;5096503;27;20043;-83
2021/04/01 05:57:22;;;;;;;24.90;4.45;;;;;;;;;;5089817;27;20082;-82
2021/04/01 06:03:16;;;;;;;30.17;5.95;;;;;;;;;;5103548;28;20135;-86
2021/04/01 06:05:48;;;;;;;25.38;4.85;;;;;;;;;;5092918;28;20042;-83
2021/04/01 06:08:17;;;;;;;29.55;4.70;;;;;;;;;;5100068;27;20363;-83
2021/04/01 06:10:44;;;;;;;33.00;5.70;;;;;;;;;;5131751;27;20042;-83
2021/04/01 06:13:17;;;;;;;35.97;5.07;;;;;;;;;;5111698;27;20043;-84
2021/04/01 06:15:48;;;;;;;25.70;3.60;;;;;;;;;;5125388;27;20068;-82
2021/04/01 06:18:15;;;;;;;29.48;4.35;;;;;;;;;;5116855;27;20092;-83
2021/04/01 06:20:46;;;;;;;25.13;4.90;;;;;;;;;;5121126;27;20130;-83
2021/04/01 06:23:21;;;;;;;24.70;4.15;;;;;;;;;;5117965;27;20031;-84
2021/04/01 06:25:49;;;;;;;24.05;3.80;;;;;;;;;;5116479;27;20046;-82
2021/04/01 06:28:17;;;;;;;26.52;4.38;;;;;;;;;;5153614;27;20039;-82
2021/04/01 06:30:51;;;;;;;25.42;4.53;;;;;;;;;;5117032;27;20043;-82
2021/04/01 06:33:23;;;;;;;35.88;4.82;;;;;;;;;;5123985;27;20028;-82
2021/04/01 06:35:54;;;;;;;30.08;4.10;;;;;;;;;;5128820;27;20643;-82
2021/04/01 06:38:23;;;;;;;26.70;4.30;;;;;;;;;;5124214;27;20385;-83
2021/04/01 06:40:50;;;;;;;28.67;5.53;;;;;;;;;;5121322;27;20063;-83
2021/04/01 06:43:21;;;;;;;23.67;4.40;;;;;;;;;;5120459;27;20041;-83
2021/04/01 06:45:51;;;;;;;28.67;4.47;;;;;;;;;;5126333;27;20046;-83
2021/04/01 06:48:21;;;;;;;33.95;5.25;;;;;;;;;;5129204;27;20107;-83
2021/04/01 06:50:47;;;;;;;30.02;4.55;;;;;;;;;;5122041;27;20088;-86
2021/04/01 06:53:29;;;;;;;25.83;4.68;;;;;;;;;;5135369;27;20045;-84
2021/04/01 06:56:08;;;;;;;30.30;4.00;;;;;;;;;;5137751;27;20058;-83
2021/04/01 06:58:41;;;;;;;30.15;4.78;;;;;;;;;;5122215;27;20077;-83
2021/04/01 07:01:13;;;;;;;21.27;3.53;;;;;;;;;;5121859;27;20035;-84
2021/04/01 07:03:47;;;;;;;33.45;4.15;;;;;;;;;;5101648;27;20119;-83
2021/04/01 07:06:17;;;;;;;;;;;;;;;;;;5145097;27;20527;-83
2021/04/01 07:08:51;;;;;;;17.17;3.65;;;;;;;;;;5160492;27;19958;-83
2021/04/01 07:14:09;;;;;;;25.75;3.90;;;;;;;;;;5122770;27;20050;-84
2021/04/01 07:16:48;;;;;;;19.35;3.90;;;;;;;;;;5122105;27;20406;-82
2021/04/01 07:19:23;;;;;;;25.67;5.13;;;;;;;;;;5128921;27;20809;-84
2021/04/01 07:47:24;;;;;;;21.27;3.83;;;;;;;;;;5122824;27;20080;-82
2021/04/01 07:49:53;;;;;;;19.30;4.03;;;;;;;;;;5117020;28;20058;-82
2021/04/01 07:52:22;;;;;;;23.58;4.15;;;;;;;;;;5134227;27;20109;-83
2021/04/01 07:54:56;;;;;;;17.65;4.00;;;;;;;;;;5121955;27;20035;-82
2021/04/01 07:57:41;;;;;;;19.27;3.78;;;;;;;;;;5114602;28;20493;-83
2021/04/01 08:05:41;;;;;;;19.05;3.35;;;;;;;;;;5111644;27;20138;-82
2021/04/01 08:08:10;;;;;;;15.65;2.83;;;;;;;;;;5119692;27;20067;-83
2021/04/01 08:10:40;;;;;;;20.20;3.03;;;;;;;;;;5122156;27;20123;-83
2021/04/01 08:13:08;;;;;;;18.75;3.33;;;;;;;;;;5134297;27;20039;-82
2021/04/01 08:15:53;;;;;;;15.63;2.85;;;;;;;;;;5120055;27;20027;-82
2021/04/01 08:20:49;;;;;;;18.92;2.80;;;;;;;;;;5120828;27;20055;-81
2021/04/01 08:23:22;;;;;;;16.92;2.85;;;;;;;;;;5131522;27;20059;-82
2021/04/01 08:26:09;;;;;;;18.98;3.35;;;;;;;;;;5119166;27;20054;-76
2021/04/01 08:28:44;;;;;;;19.05;2.88;;;;;;;;;;5129401;27;20033;-76
2021/04/01 08:36:20;;;;;;;17.52;2.70;;;;;;;;;;5126390;27;20092;-77
2021/04/01 08:38:47;;;;;;;14.65;2.55;;;;;;;;;;5121975;27;20046;-79
2021/04/01 08:41:20;;;;;;;16.52;3.00;;;;;;;;;;5098844;27;20082;-81
2021/04/01 08:44:06;;;;;;;16.30;2.55;;;;;;;;;;5119541;27;20047;-76
2021/04/01 08:46:51;;;;;;;19.65;3.67;;;;;;;;;;5120358;27;20043;-77
2021/04/01 08:49:29;;;;;;;22.85;3.58;;;;;;;;;;5119919;27;20062;-72
2021/04/01 08:52:04;;;;;;;21.02;2.97;;;;;;;;;;5122514;27;20133;-72
2021/04/01 08:54:34;;;;;;;18.40;2.95;;;;;;;;;;5133052;27;20054;-74
2021/04/01 08:57:06;;;;;;;13.65;2.38;;;;;;;;;;5122443;27;20046;-75
2021/04/01 08:59:35;;;;;;;20.25;2.58;;;;;;;;;;5132082;27;20118;-74
2021/04/01 09:02:02;;;;;;;16.67;3.10;;;;;;;;;;5133387;27;20031;-76
2021/04/01 09:04:30;;;;;;;19.02;3.15;;;;;;;;;;5144556;27;20043;-74
2021/04/01 09:07:01;;;;;;;15.43;2.53;;;;;;;;;;5132303;27;20467;-75
2021/04/01 09:09:29;;;;;;;17.60;3.25;;;;;;;;;;5131012;27;20114;-75
2021/04/01 09:12:11;;;;;;;19.13;3.78;;;;;;;;;;5133177;27;20127;-75
2021/04/01 09:14:42;;;;;;;19.92;3.42;;;;;;;;;;5133167;27;20035;-74
2021/04/01 09:17:13;;;;;;;18.05;2.85;;;;;;;;;;5133430;27;20039;-74
2021/04/01 09:19:40;;;;;;;18.38;3.47;;;;;;;;;;5133638;27;20062;-74
2021/04/01 09:22:15;;;;;;;24.77;3.28;;;;;;;;;;5132827;27;20055;-74
2021/04/01 09:24:42;;;;;;;16.85;2.83;;;;;;;;;;5133626;27;20039;-80
2021/04/01 09:27:13;;;;;;;15.60;3.15;;;;;;;;;;5112282;27;20079;-76
2021/04/01 09:29:40;;;;;;;15.55;3.15;;;;;;;;;;5134377;27;20233;-76
2021/04/01 09:32:08;;;;;;;13.20;2.90;;;;;;;;;;5132393;27;20435;-76
2021/04/01 09:34:36;;;;;;;22.23;3.13;;;;;;;;;;5114122;28;20062;-73
2021/04/01 09:37:17;;;;;;;20.80;3.40;;;;;;;;;;5128999;27;20062;-82
2021/04/01 09:39:43;;;;;;;23.08;3.30;;;;;;;;;;5133271;27;20035;-73
2021/04/01 09:42:14;;;;;;;19.60;3.13;;;;;;;;;;5134062;27;20486;-72
2021/04/01 09:44:51;;;;;;;14.77;2.85;;;;;;;;;;5132681;27;20397;-74
2021/04/01 09:47:17;;;;;;;23.90;3.25;;;;;;;;;;5133566;27;20438;-75
2021/04/01 09:49:59;;;;;;;17.23;3.10;;;;;;;;;;5115153;27;20398;-74
2021/04/01 09:52:27;;;;;;;16.02;3.63;;;;;;;;;;5133051;27;20039;-75
2021/04/01 09:55:00;;;;;;;19.33;2.92;;;;;;;;;;5132323;27;20181;-74
2021/04/01 09:57:38;;;;;;;19.25;3.45;;;;;;;;;;5134138;27;20473;-73
2021/04/01 10:00:08;;;;;;;21.42;4.32;;;;;;;;;;5130988;27;20098;-75
2021/04/01 10:02:35;;;;;;;19.27;3.92;;;;;;;;;;5131033;27;20532;-78
2021/04/01 10:05:03;;;;;;;16.08;2.90;;;;;;;;;;5130797;27;20051;-78
2021/04/01 10:07:32;;;;;;;18.33;3.60;;;;;;;;;;5133968;27;20042;-80
2021/04/01 10:09:59;;;;;;;18.77;3.03;;;;;;;;;;5131762;27;20051;-77
2021/04/01 10:12:38;;;;;;;14.43;3.33;;;;;;;;;;5132180;27;20469;-77
2021/04/01 10:15:11;;;;;;;17.67;3.13;;;;;;;;;;5131518;27;20370;-76
2021/04/01 10:17:38;;;;;;;20.02;3.33;;;;;;;;;;5133231;27;20465;-70
2021/04/01 10:20:06;;;;;;;16.30;3.72;;;;;;;;;;5130540;27;20035;-80
2021/04/01 10:22:35;;;;;;;23.02;3.35;;;;;;;;;;5133895;27;20042;-75
2021/04/01 10:25:27;;;;;;;26.60;3.80;;;;;;;;;;5131097;27;20137;-76
2021/04/01 10:30:28;;;;;;;20.77;4.85;;;;;;;;;;5131218;27;20050;-74
2021/04/01 10:32:55;;;;;;;26.05;3.38;;;;;;;;;;5131864;27;20042;-73
2021/04/01 10:35:25;;;;;;;22.38;3.90;;;;;;;;;;5128131;27;20477;-75
2021/04/01 10:37:56;;;;;;;18.15;2.83;;;;;;;;;;5127968;27;20121;-74
2021/04/01 10:40:23;;;;;;;25.73;4.57;;;;;;;;;;5131281;27;20046;-75
2021/04/01 10:42:50;;;;;;;23.77;4.03;;;;;;;;;;5131731;27;20130;-74
2021/04/01 10:45:20;;;;;;;21.20;4.47;;;;;;;;;;5132283;27;20042;-76
2021/04/01 10:47:52;;;;;;;25.02;3.85;;;;;;;;;;5131691;27;20046;-74
2021/04/01 10:50:19;;;;;;;18.48;3.50;;;;;;;;;;5129965;27;20554;-79
2021/04/01 10:52:45;;;;;;;22.52;4.00;;;;;;;;;;5094500;27;20129;-77
2021/04/01 10:55:12;;;;;;;23.85;3.67;;;;;;;;;;5122527;27;20165;-79
2021/04/01 10:57:39;;;;;;;15.93;3.08;;;;;;;;;;5121486;27;20478;-81
2021/04/01 11:00:23;;;;;;;18.05;4.88;;;;;;;;;;5133202;27;20051;-76
2021/04/01 11:02:49;;;;;;;;;;;;;;;;;;5142334;27;20525;-76
2021/04/01 11:05:17;;;;;;;19.35;3.17;;;;;;;;;;5125454;27;19919;-77
2021/04/01 11:07:46;;;;;;;23.65;3.83;;;;;;;;;;5121991;27;20042;-76
2021/04/01 11:10:23;;;;;;;24.75;3.53;;;;;;;;;;5131176;27;20439;-77
2021/04/01 11:12:50;;;;;;;18.88;4.05;;;;;;;;;;5126757;27;20047;-78
2021/04/01 11:15:18;;;;;;;20.63;3.70;;;;;;;;;;5142212;27;20122;-78
2021/04/01 11:17:44;;;;;;;20.67;3.92;;;;;;;;;;5130725;27;20067;-77
2021/04/01 11:20:12;;;;;;;20.88;3.72;;;;;;;;;;5129525;27;20054;-78
2021/04/01 11:22:39;;;;;;;21.38;3.38;;;;;;;;;;5131005;27;20489;-78
2021/04/01 11:25:10;;;;;;;19.10;3.00;;;;;;;;;;5144740;27;20039;-77
2021/04/01 11:27:36;;;;;;;18.77;3.20;;;;;;;;;;5125753;27;20389;-77
2021/04/01 11:30:04;;;;;;;21.25;3.10;;;;;;;;;;5126725;28;20043;-77
2021/04/01 11:32:31;;;;;;;22.38;3.83;;;;;;;;;;5140161;27;20036;-76
2021/04/01 11:34:58;;;;;;;20.42;3.63;;;;;;;;;;5133168;27;20562;-78
2021/04/01 11:37:26;;;;;;;19.58;3.80;;;;;;;;;;5111929;28;20497;-78
2021/04/01 11:40:04;;;;;;;22.98;4.28;;;;;;;;;;5138376;27;20054;-77
2021/04/01 11:42:31;;;;;;;19.88;3.53;;;;;;;;;;5121289;27;20131;-82
2021/04/01 11:44:58;;;;;;;12.38;2.30;;;;;;;;;;5137820;27;20039;-77
2021/04/01 11:47:25;;;;;;;19.27;3.65;;;;;;;;;;5129750;27;20035;-75
2021/04/01 11:49:53;;;;;;;21.80;3.75;;;;;;;;;;5127808;27;20047;-78
2021/04/01 11:52:20;;;;;;;19.92;3.95;;;;;;;;;;5141058;27;20102;-78
2021/04/01 11:54:47;;;;;;;15.48;2.78;;;;;;;;;;5142760;27;20041;-77
2021/04/01 11:57:18;;;;;;;21.58;3.72;;;;;;;;;;5118642;27;20115;-78
2021/04/01 11:59:54;;;;;;;19.08;3.13;;;;;;;;;;5137339;27;20038;-77
2021/04/01 12:02:21;;;;;;;21.73;3.30;;;;;;;;;;5136077;27;20043;-76
2021/04/01 12:04:49;;;;;;;17.55;3.45;;;;;;;;;;5132403;27;20482;-72
2021/04/01 12:07:16;;;;;;;19.13;3.40;;;;;;;;;;5135157;27;20042;-74
2021/04/01 12:09:46;;;;;;;20.52;2.97;;;;;;;;;;5134642;27;20042;-74
2021/04/01 12:12:12;;;;;;;21.23;2.70;;;;;;;;;;5117556;27;20043;-78
2021/04/01 12:14:39;;;;;;;18.80;3.13;;;;;;;;;;5127629;27;20049;-73
2021/04/01 12:17:06;;;;;;;18.75;4.13;;;;;;;;;;5130386;27;20043;-72
2021/04/01 12:19:32;;;;;;;17.95;3.67;;;;;;;;;;5134908;27;20035;-72
2021/04/01 12:22:04;;;;;;;24.00;3.53;;;;;;;;;;5131629;27;20039;-72
2021/04/01 12:24:30;;;;;;;25.20;4.85;;;;;;;;;;5128723;27;20351;-72
2021/04/01 12:26:58;;;;;;;21.77;4.30;;;;;;;;;;5132809;27;20055;-72
2021/04/01 12:29:25;;;;;;;23.77;3.60;;;;;;;;;;5127896;27;20031;-71
2021/04/01 12:31:54;;;;;;;20.73;3.55;;;;;;;;;;5132372;27;20055;-71
2021/04/01 12:34:31;;;;;;;22.00;3.75;;;;;;;;;;5121894;27;20039;-71
2021/04/01 12:37:02;;;;;;;18.83;3.22;;;;;;;;;;5126839;27;20055;-72
2021/04/01 12:39:30;;;;;;;16.92;3.58;;;;;;;;;;5123265;27;20175;-75
2021/04/01 12:41:56;;;;;;;18.73;3.47;;;;;;;;;;5125956;27;20058;-75
2021/04/01 12:44:32;;;;;;;18.15;4.15;;;;;;;;;;5130389;27;20039;-78
2021/04/01 12:46:59;;;;;;;16.60;3.20;;;;;;;;;;5132661;27;20516;-75
2021/04/01 12:49:31;;;;;;;20.27;3.15;;;;;;;;;;5132087;27;20050;-77
2021/04/01 12:52:01;;;;;;;22.83;3.83;;;;;;;;;;5148485;27;20048;-76
2021/04/01 12:54:29;;;;;;;13.73;3.00;;;;;;;;;;5113387;28;20031;-77
2021/04/01 12:57:01;;;;;;;18.00;4.50;;;;;;;;;;5134616;27;20354;-76
2021/04/01 12:59:32;;;;;;;13.27;2.78;;;;;;;;;;5133689;27;20039;-76
2021/04/01 13:02:08;;;;;;;11.75;2.53;;;;;;;;;;5135130;27;20031;-77
2021/04/01 13:04:36;;;;;;;13.55;2.53;;;;;;;;;;5133481;27;20220;-76
2021/04/01 13:12:08;;;;;;;14.60;3.60;;;;;;;;;;5133759;27;20043;-77
2021/04/01 13:14:34;;;;;;;12.00;2.05;;;;;;;;;;5131947;27;20063;-76
2021/04/01 13:17:01;;;;;;;10.80;2.58;;;;;;;;;;5134969;27;20063;-75
2021/04/01 13:19:27;;;;;;;13.10;2.20;;;;;;;;;;5132832;27;20067;-75
2021/04/01 13:22:06;;;;;;;15.73;2.13;;;;;;;;;;5134124;27;20082;-74
2021/04/01 13:27:02;;;;;;;6.68;2.03;;;;;;;;;;5135039;27;20040;-76
2021/04/01 13:29:32;;;;;;;9.02;2.05;;;;;;;;;;5114797;27;20070;-77
2021/04/01 13:32:02;;;;;;;9.63;2.30;;;;;;;;;;5132872;27;20077;-76
2021/04/01 13:34:43;;;;;;;9.32;2.15;;;;;;;;;;5133974;27;20067;-76
2021/04/01 13:39:47;;;;;;;12.45;2.45;;;;;;;;;;5134252;27;20196;-76
2021/04/01 13:42:27;;;;;;;8.85;2.08;;;;;;;;;;5134651;27;20566;-77
2021/04/01 13:44:56;;;;;;;13.73;2.13;;;;;;;;;;5135007;27;20038;-76
2021/04/01 13:47:23;;;;;;;11.35;2.05;;;;;;;;;;5132773;27;20062;-76
2021/04/01 13:49:52;;;;;;;9.27;2.17;;;;;;;;;;5104455;28;20044;-77
2021/04/01 13:57:30;;;;;;;7.00;1.95;;;;;;;;;;5133892;27;20043;-77
2021/04/01 14:11:11;;;;;;;6.30;2.60;;;;;;;;;;5133478;27;20505;-74
2021/04/01 14:13:37;;;;;;;10.13;3.13;;;;;;;;;;5143137;27;20038;-75
2021/04/01 14:16:04;;;;;;;9.00;2.53;;;;;;;;;;5126840;27;20031;-75
2021/04/01 14:18:31;;;;;;;7.18;2.90;;;;;;;;;;5128578;27;20043;-74
2021/04/01 14:21:00;;;;;;;10.27;2.70;;;;;;;;;;5129031;27;20031;-78
2021/04/01 14:23:27;;;;;;;11.15;2.83;;;;;;;;;;5119630;27;20080;-78
2021/04/01 14:25:56;;;;;;;9.90;3.10;;;;;;;;;;5128062;27;20053;-72
2021/04/01 14:28:22;;;;;;;12.05;3.17;;;;;;;;;;5129079;27;20068;-72
2021/04/01 14:30:48;;;;;;;12.02;2.72;;;;;;;;;;5127750;27;20066;-72
2021/04/01 14:33:15;;;;;;;7.07;2.75;;;;;;;;;;5128008;27;20034;-73
2021/04/01 14:35:43;;;;;;;13.55;2.92;;;;;;;;;;5126176;27;20070;-75
2021/04/01 14:38:10;;;;;;;10.57;2.72;;;;;;;;;;5127065;27;20046;-71
2021/04/01 14:41:02;;;;;;;16.95;2.63;;;;;;;;;;5129432;27;20051;-72
2021/04/01 14:43:30;;;;;;;10.38;2.38;;;;;;;;;;5122064;27;20051;-71
2021/04/01 14:45:57;;;;;;;11.43;2.40;;;;;;;;;;5140429;27;20055;-76
2021/04/01 14:48:23;;;;;;;8.23;2.53;;;;;;;;;;5124627;27;20060;-72
2021/04/01 14:50:49;;;;;;;8.20;2.13;;;;;;;;;;5123440;27;20208;-71
2021/04/01 14:53:22;;;;;;;12.48;2.00;;;;;;;;;;5139023;27;20034;-72
2021/04/01 14:55:49;;;;;;;13.77;2.87;;;;;;;;;;5121366;27;20196;-72
2021/04/01 14:58:15;;;;;;;9.40;2.15;;;;;;;;;;5122984;27;20039;-71
2021/04/01 15:00:42;;;;;;;8.85;2.42;;;;;;;;;;5127126;27;20057;-71
2021/04/01 15:03:08;;;;;;;12.75;2.50;;;;;;;;;;5130230;27;20475;-71
2021/04/01 15:05:36;;;;;;;12.80;2.20;;;;;;;;;;5130594;27;20139;-71
2021/04/01 15:08:03;;;;;;;10.05;2.42;;;;;;;;;;5125697;27;20035;-74
2021/04/01 15:10:30;;;;;;;11.82;3.10;;;;;;;;;;5130584;27;20059;-75
2021/04/01 15:12:57;;;;;;;16.38;2.63;;;;;;;;;;5125566;27;20042;-72
2021/04/01 15:15:23;;;;;;;11.25;2.45;;;;;;;;;;5116470;27;20059;-71
2021/04/01 15:17:50;;;;;;;11.43;2.50;;;;;;;;;;5122528;27;20179;-71
2021/04/01 15:20:18;;;;;;;10.70;2.40;;;;;;;;;;5115906;27;20062;-76
2021/04/01 15:22:44;;;;;;;21.63;3.50;;;;;;;;;;5115099;27;20043;-70
2021/04/01 15:25:10;;;;;;;8.55;2.33;;;;;;;;;;5119898;27;20051;-72
2021/04/01 15:27:36;;;;;;;11.15;2.63;;;;;;;;;;5126283;28;20051;-79
2021/04/01 15:30:04;;;;;;;8.38;2.58;;;;;;;;;;5112306;27;20057;-75
2021/04/01 15:32:30;;;;;;;15.70;3.30;;;;;;;;;;5118813;27;20415;-72
2021/04/01 15:34:56;;;;;;;15.25;2.30;;;;;;;;;;5115397;28;20494;-72
2021/04/01 15:37:22;;;;;;;14.90;4.20;;;;;;;;;;5129399;28;20066;-73
2021/04/01 15:39:48;;;;;;;12.90;2.45;;;;;;;;;;5121487;28;20082;-72
2021/04/01 15:42:16;;;;;;;12.15;3.10;;;;;;;;;;5131050;28;20051;-72
2021/04/01 15:44:44;;;;;;;11.35;2.97;;;;;;;;;;5132147;28;20043;-73
2021/04/01 15:47:10;;;;;;;14.40;2.90;;;;;;;;;;5131231;28;20067;-73
2021/04/01 15:49:36;;;;;;;14.35;3.00;;;;;;;;;;5131569;28;20091;-72
2021/04/01 15:52:02;;;;;;;13.35;2.80;;;;;;;;;;5131637;28;20047;-73
2021/04/01 15:54:29;;;;;;;8.45;2.75;;;;;;;;;;5124122;27;20157;-73
2021/04/01 15:56:55;;;;;;;7.57;2.50;;;;;;;;;;5131560;27;20072;-73
2021/04/01 15:59:21;;;;;;;14.25;2.25;;;;;;;;;;5126265;28;20042;-73
2021/04/01 16:01:47;;;;;;;10.20;2.50;;;;;;;;;;5119820;28;20038;-72
2021/04/01 16:04:13;;;;;;;9.40;2.13;;;;;;;;;;5129745;28;20128;-72
2021/04/01 16:06:40;;;;;;;13.80;3.33;;;;;;;;;;5130191;28;20500;-72
2021/04/01 16:09:06;;;;;;;9.75;2.08;;;;;;;;;;5131284;28;20051;-73
2021/04/01 16:11:35;;;;;;;13.98;3.65;;;;;;;;;;5112055;28;20127;-72
2021/04/01 16:14:02;;;;;;;10.93;3.42;;;;;;;;;;5125395;28;20039;-72
2021/04/01 16:16:29;;;;;;;12.43;2.83;;;;;;;;;;5132583;28;20043;-73
2021/04/01 16:18:55;;;;;;;18.38;2.88;;;;;;;;;;5127329;28;20038;-74
2021/04/01 16:21:21;;;;;;;11.20;2.05;;;;;;;;;;5131137;28;20138;-74